Climatologie pour Saint-Brevin les Pins
Jour • Résumé pour mai 25, 2017 Système :  Métrique    Anglais   Mixte
« - 1 jour
+ 1 jour »
Jour Semaine Mois Année Personnalisé
  Maximum : Minimum : Moyenne :
Température sous abri : 29.6 °C 12.8 °C 22.1 °C
Point de rosée : 17.8 °C 12.2 °C 15.7 °C
Humidité : 97 % 42 % 70 %
Vitesse du vent : 25.7 km/h 0.0 km/h 7.7 km/h
Rafale : 37.0 km/h - -
Direction :- - East
Pression : 1020.9 hPa 1013.4 hPa -
Précipitations : 0.0 mm    
Historical Graphs
 
 
Tableau de données pour mai 25, 2017
Heure Tempé Pt rosée Pression Vent Vitesse Rafale Humidité Taux pluie (/hr) Soleil
00:00 19.7 °C 16.1 °C 1020.9 hPa East 9.7 km/h 17.7 km/h 80 % 0.0 mm 0 W/m2
00:10 19.5 °C 16.2 °C 1020.9 hPa ENE 3.2 km/h 17.7 km/h 81 % 0.0 mm 0 W/m2
00:15 19.4 °C 16.1 °C 1020.9 hPa East 8.0 km/h 19.3 km/h 81 % 0.0 mm 0 W/m2
00:20 19.3 °C 16.0 °C 1020.9 hPa East 3.2 km/h 19.3 km/h 81 % 0.0 mm 0 W/m2
00:25 19.2 °C 16.1 °C 1020.9 hPa ENE 11.3 km/h 16.1 km/h 82 % 0.0 mm 0 W/m2
00:30 19.2 °C 16.0 °C 1020.9 hPa ENE 3.2 km/h 16.1 km/h 82 % 0.0 mm 0 W/m2
00:35 19.2 °C 16.0 °C 1020.9 hPa East 4.8 km/h 14.5 km/h 82 % 0.0 mm 0 W/m2
00:40 19.2 °C 16.0 °C 1020.9 hPa East 8.0 km/h 16.1 km/h 82 % 0.0 mm 0 W/m2
00:45 19.0 °C 15.9 °C 1020.9 hPa ENE 3.2 km/h 16.1 km/h 82 % 0.0 mm 0 W/m2
00:50 18.9 °C 16.0 °C 1020.9 hPa East 4.8 km/h 12.9 km/h 83 % 0.0 mm 0 W/m2
00:55 18.9 °C 16.0 °C 1020.9 hPa East 4.8 km/h 16.1 km/h 83 % 0.0 mm 0 W/m2
01:05 18.8 °C 15.8 °C 1020.9 hPa East 9.7 km/h 16.1 km/h 83 % 0.0 mm 0 W/m2
01:10 18.6 °C 15.9 °C 1020.9 hPa ENE 1.6 km/h 16.1 km/h 84 % 0.0 mm 0 W/m2
01:15 18.6 °C 15.8 °C 1020.9 hPa ESE 4.8 km/h 12.9 km/h 84 % 0.0 mm 0 W/m2
01:20 18.4 °C 15.6 °C 1020.5 hPa East 8.0 km/h 12.9 km/h 84 % 0.0 mm 0 W/m2
01:25 18.3 °C 15.8 °C 1020.5 hPa ENE 8.0 km/h 11.3 km/h 85 % 0.0 mm 0 W/m2
01:35 18.1 °C 15.7 °C 1020.5 hPa East 3.2 km/h 14.5 km/h 86 % 0.0 mm 0 W/m2
01:40 18.0 °C 15.6 °C 1020.5 hPa ENE 4.8 km/h 12.9 km/h 86 % 0.0 mm 0 W/m2
01:45 17.9 °C 15.5 °C 1020.5 hPa East 4.8 km/h 11.3 km/h 86 % 0.0 mm 0 W/m2
01:50 17.8 °C 15.6 °C 1020.5 hPa East 4.8 km/h 12.9 km/h 87 % 0.0 mm 0 W/m2
01:55 17.7 °C 15.5 °C 1020.5 hPa ENE 1.6 km/h 12.9 km/h 87 % 0.0 mm 0 W/m2
02:00 17.7 °C 15.5 °C 1020.5 hPa ENE 6.4 km/h 12.9 km/h 87 % 0.0 mm 0 W/m2
02:10 17.3 °C 15.3 °C 1020.2 hPa ENE 4.8 km/h 12.9 km/h 88 % 0.0 mm 0 W/m2
02:15 17.3 °C 15.3 °C 1020.2 hPa East 3.2 km/h 11.3 km/h 88 % 0.0 mm 0 W/m2
02:20 17.2 °C 15.2 °C 1020.2 hPa ENE 3.2 km/h 11.3 km/h 88 % 0.0 mm 0 W/m2
02:25 17.0 °C 15.2 °C 1020.2 hPa ENE 4.8 km/h 11.3 km/h 89 % 0.0 mm 0 W/m2
02:30 16.8 °C 15.0 °C 1020.2 hPa ENE 3.2 km/h 9.7 km/h 89 % 0.0 mm 0 W/m2
02:35 16.6 °C 15.0 °C 1020.2 hPa ENE 4.8 km/h 9.7 km/h 90 % 0.0 mm 0 W/m2
02:40 16.6 °C 14.9 °C 1020.2 hPa ENE 4.8 km/h 9.7 km/h 90 % 0.0 mm 0 W/m2
02:45 16.4 °C 14.8 °C 1019.9 hPa East 1.6 km/h 9.7 km/h 90 % 0.0 mm 0 W/m2
02:50 16.5 °C 15.0 °C 1019.9 hPa ENE 3.2 km/h 9.7 km/h 91 % 0.0 mm 0 W/m2
02:55 16.5 °C 15.0 °C 1019.9 hPa Calm   8.0 km/h 91 % 0.0 mm 0 W/m2
03:00 16.5 °C 15.0 °C 1019.9 hPa East 3.2 km/h 8.0 km/h 91 % 0.0 mm 0 W/m2
03:05 16.4 °C 15.0 °C 1019.9 hPa East 3.2 km/h 8.0 km/h 91 % 0.0 mm 0 W/m2
03:10 16.3 °C 14.8 °C 1019.5 hPa ENE 1.6 km/h 11.3 km/h 91 % 0.0 mm 0 W/m2
03:15 16.2 °C 14.8 °C 1019.5 hPa ENE 3.2 km/h 11.3 km/h 91 % 0.0 mm 0 W/m2
03:20 16.1 °C 14.6 °C 1019.5 hPa ENE 3.2 km/h 6.4 km/h 91 % 0.0 mm 0 W/m2
03:25 15.8 °C 14.4 °C 1019.5 hPa Calm   6.4 km/h 91 % 0.0 mm 0 W/m2
03:30 15.7 °C 14.4 °C 1019.5 hPa ENE 4.8 km/h 8.0 km/h 92 % 0.0 mm 0 W/m2
03:35 15.6 °C 14.3 °C 1019.5 hPa Calm   8.0 km/h 92 % 0.0 mm 0 W/m2
03:40 15.5 °C 14.4 °C 1019.5 hPa Calm   11.3 km/h 93 % 0.0 mm 0 W/m2
03:50 15.3 °C 14.0 °C 1019.2 hPa Calm   4.8 km/h 92 % 0.0 mm 0 W/m2
03:55 15.2 °C 14.1 °C 1019.2 hPa ENE 6.4 km/h 8.0 km/h 93 % 0.0 mm 0 W/m2
04:00 15.1 °C 14.0 °C 1019.2 hPa ENE 6.4 km/h 9.7 km/h 93 % 0.0 mm 0 W/m2
04:05 15.2 °C 14.3 °C 1019.2 hPa ENE 1.6 km/h 11.3 km/h 94 % 0.0 mm 0 W/m2
04:10 15.4 °C 14.4 °C 1019.2 hPa NE 6.4 km/h 11.3 km/h 94 % 0.0 mm 0 W/m2
04:15 15.4 °C 14.5 °C 1019.2 hPa East 3.2 km/h 8.0 km/h 94 % 0.0 mm 0 W/m2
04:20 15.3 °C 14.2 °C 1019.5 hPa East 1.6 km/h 6.4 km/h 93 % 0.0 mm 0 W/m2
04:25 15.1 °C 14.0 °C 1019.2 hPa Calm   6.4 km/h 93 % 0.0 mm 0 W/m2
04:30 14.9 °C 13.8 °C 1019.2 hPa East 1.6 km/h 3.2 km/h 93 % 0.0 mm 0 W/m2
04:35 14.7 °C 13.7 °C 1019.2 hPa East 3.2 km/h 4.8 km/h 94 % 0.0 mm 0 W/m2
04:40 14.4 °C 13.3 °C 1019.2 hPa ENE 3.2 km/h 6.4 km/h 93 % 0.0 mm 0 W/m2
04:45 14.5 °C 13.5 °C 1019.2 hPa ENE 1.6 km/h 6.4 km/h 94 % 0.0 mm 0 W/m2
04:50 14.6 °C 13.7 °C 1019.2 hPa NE 1.6 km/h 4.8 km/h 94 % 0.0 mm 0 W/m2
04:55 14.5 °C 13.5 °C 1019.2 hPa Calm   4.8 km/h 94 % 0.0 mm 0 W/m2
05:00 14.3 °C 13.3 °C 1019.2 hPa NE 1.6 km/h 4.8 km/h 94 % 0.0 mm 0 W/m2
05:05 14.1 °C 13.3 °C 1019.2 hPa Calm   4.8 km/h 95 % 0.0 mm 0 W/m2
05:10 13.9 °C 13.2 °C 1019.2 hPa Calm   1.6 km/h 95 % 0.0 mm 0 W/m2
05:15 13.8 °C 13.0 °C 1019.2 hPa Calm   3.2 km/h 95 % 0.0 mm 0 W/m2
05:20 13.7 °C 12.9 °C 1019.2 hPa Calm   3.2 km/h 95 % 0.0 mm 0 W/m2
05:25 13.6 °C 12.8 °C 1019.2 hPa Calm   3.2 km/h 95 % 0.0 mm 0 W/m2
05:30 13.5 °C 12.7 °C 1019.2 hPa ENE 1.6 km/h 4.8 km/h 95 % 0.0 mm 0 W/m2
05:35 13.4 °C 12.8 °C 1019.2 hPa ENE 1.6 km/h 4.8 km/h 96 % 0.0 mm 0 W/m2
05:40 13.7 °C 13.1 °C 1019.2 hPa Calm   4.8 km/h 96 % 0.0 mm 0 W/m2
05:45 13.6 °C 13.0 °C 1019.2 hPa ENE 1.6 km/h 4.8 km/h 96 % 0.0 mm 0 W/m2
05:50 13.5 °C 12.9 °C 1019.2 hPa Calm   3.2 km/h 96 % 0.0 mm 0 W/m2
05:55 13.5 °C 12.9 °C 1019.2 hPa Calm   3.2 km/h 96 % 0.0 mm 0 W/m2
06:00 13.4 °C 12.8 °C 1018.8 hPa ENE 1.6 km/h 4.8 km/h 96 % 0.0 mm 0 W/m2
06:05 13.3 °C 12.7 °C 1019.2 hPa ENE 3.2 km/h 4.8 km/h 96 % 0.0 mm 0 W/m2
06:10 13.1 °C 12.5 °C 1019.2 hPa Calm   3.2 km/h 96 % 0.0 mm 0 W/m2
06:15 13.1 °C 12.5 °C 1019.2 hPa Calm   4.8 km/h 96 % 0.0 mm 0 W/m2
06:20 13.1 °C 12.4 °C 1018.8 hPa Calm   4.8 km/h 96 % 0.0 mm 0 W/m2
06:25 13.1 °C 12.4 °C 1019.2 hPa Calm   3.2 km/h 96 % 0.0 mm 5 W/m2
06:30 12.9 °C 12.3 °C 1019.2 hPa Calm   3.2 km/h 96 % 0.0 mm 7 W/m2
06:35 12.8 °C 12.2 °C 1019.2 hPa ENE 3.2 km/h 4.8 km/h 96 % 0.0 mm 9 W/m2
06:40 12.8 °C 12.2 °C 1019.2 hPa Calm   4.8 km/h 96 % 0.0 mm 11 W/m2
06:45 12.9 °C 12.5 °C 1019.2 hPa Calm   4.8 km/h 97 % 0.0 mm 12 W/m2
06:50 13.1 °C 12.6 °C 1019.2 hPa Calm   4.8 km/h 97 % 0.0 mm 16 W/m2
06:55 13.1 °C 12.6 °C 1018.8 hPa ENE 1.6 km/h 4.8 km/h 97 % 0.0 mm 18 W/m2
07:00 13.3 °C 12.9 °C 1018.8 hPa ENE 6.4 km/h 6.4 km/h 97 % 0.0 mm 19 W/m2
07:05 13.7 °C 13.3 °C 1019.2 hPa Calm   8.0 km/h 97 % 0.0 mm 21 W/m2
07:10 13.9 °C 13.5 °C 1019.2 hPa ENE 3.2 km/h 9.7 km/h 97 % 0.0 mm 23 W/m2
07:15 14.1 °C 13.6 °C 1019.2 hPa ENE 11.3 km/h 11.3 km/h 97 % 0.0 mm 25 W/m2
07:20 14.4 °C 13.9 °C 1019.2 hPa ENE 1.6 km/h 11.3 km/h 97 % 0.0 mm 26 W/m2
07:25 14.5 °C 14.0 °C 1018.8 hPa ENE 6.4 km/h 16.1 km/h 97 % 0.0 mm 28 W/m2
07:30 14.7 °C 14.2 °C 1018.8 hPa ENE 4.8 km/h 16.1 km/h 97 % 0.0 mm 30 W/m2
07:35 14.9 °C 14.4 °C 1018.8 hPa East 9.7 km/h 16.1 km/h 97 % 0.0 mm 32 W/m2
07:40 15.0 °C 14.4 °C 1018.8 hPa NE 4.8 km/h 14.5 km/h 96 % 0.0 mm 33 W/m2
07:45 15.1 °C 14.5 °C 1018.8 hPa ENE 4.8 km/h 14.5 km/h 96 % 0.0 mm 35 W/m2
07:50 15.3 °C 14.6 °C 1018.8 hPa East 8.0 km/h 16.1 km/h 96 % 0.0 mm 37 W/m2
07:55 15.4 °C 14.8 °C 1018.8 hPa East 11.3 km/h 17.7 km/h 96 % 0.0 mm 39 W/m2
08:00 15.6 °C 14.8 °C 1018.8 hPa East 12.9 km/h 17.7 km/h 95 % 0.0 mm 158 W/m2
08:05 15.7 °C 14.9 °C 1018.8 hPa East 4.8 km/h 17.7 km/h 95 % 0.0 mm 223 W/m2
08:10 15.9 °C 14.9 °C 1018.8 hPa NE 12.9 km/h 17.7 km/h 94 % 0.0 mm 234 W/m2
08:15 16.1 °C 15.1 °C 1018.8 hPa East 8.0 km/h 16.1 km/h 94 % 0.0 mm 250 W/m2
08:20 16.4 °C 15.3 °C 1018.8 hPa ENE 11.3 km/h 16.1 km/h 93 % 0.0 mm 264 W/m2
08:25 16.7 °C 15.4 °C 1018.8 hPa ENE 4.8 km/h 17.7 km/h 92 % 0.0 mm 283 W/m2
08:30 16.9 °C 15.4 °C 1018.8 hPa East 8.0 km/h 17.7 km/h 91 % 0.0 mm 297 W/m2
08:35 17.2 °C 15.5 °C 1018.8 hPa ENE 8.0 km/h 16.1 km/h 90 % 0.0 mm 309 W/m2
08:40 17.3 °C 15.5 °C 1018.8 hPa NE 8.0 km/h 17.7 km/h 89 % 0.0 mm 325 W/m2
08:45 17.7 °C 15.7 °C 1018.8 hPa East 11.3 km/h 17.7 km/h 88 % 0.0 mm 269 W/m2
08:50 17.9 °C 15.5 °C 1018.8 hPa East 9.7 km/h 17.7 km/h 86 % 0.0 mm 348 W/m2
08:55 18.2 °C 15.8 °C 1018.8 hPa ENE 8.0 km/h 17.7 km/h 86 % 0.0 mm 366 W/m2
09:00 18.4 °C 15.7 °C 1018.8 hPa ESE 3.2 km/h 24.1 km/h 84 % 0.0 mm 381 W/m2
09:05 18.8 °C 16.1 °C 1018.8 hPa ESE 16.1 km/h 24.1 km/h 84 % 0.0 mm 396 W/m2
09:10 19.1 °C 15.9 °C 1018.8 hPa East 12.9 km/h 20.9 km/h 82 % 0.0 mm 411 W/m2
09:15 19.2 °C 15.8 °C 1018.8 hPa ENE 4.8 km/h 24.1 km/h 81 % 0.0 mm 424 W/m2
09:20 19.4 °C 15.9 °C 1018.8 hPa NE 6.4 km/h 24.1 km/h 80 % 0.0 mm 439 W/m2
09:25 19.7 °C 16.0 °C 1018.8 hPa ESE 6.4 km/h 20.9 km/h 79 % 0.0 mm 454 W/m2
09:30 19.9 °C 16.0 °C 1018.8 hPa NE 4.8 km/h 20.9 km/h 78 % 0.0 mm 469 W/m2
09:35 20.2 °C 16.0 °C 1018.8 hPa ESE 4.8 km/h 20.9 km/h 77 % 0.0 mm 485 W/m2
09:40 20.4 °C 16.3 °C 1018.8 hPa ENE 1.6 km/h 17.7 km/h 77 % 0.0 mm 499 W/m2
09:45 20.6 °C 16.2 °C 1018.8 hPa East 14.5 km/h 27.4 km/h 76 % 0.0 mm 515 W/m2
09:50 20.7 °C 15.9 °C 1018.8 hPa East 14.5 km/h 27.4 km/h 74 % 0.0 mm 527 W/m2
10:00 21.2 °C 16.4 °C 1018.8 hPa ENE 12.9 km/h 24.1 km/h 74 % 0.0 mm 554 W/m2
10:05 21.3 °C 16.2 °C 1018.8 hPa East 12.9 km/h 24.1 km/h 73 % 0.0 mm 568 W/m2
10:10 21.3 °C 16.3 °C 1018.5 hPa ESE 8.0 km/h 24.1 km/h 73 % 0.0 mm 584 W/m2
10:15 21.6 °C 16.3 °C 1018.5 hPa ENE 8.0 km/h 22.5 km/h 72 % 0.0 mm 596 W/m2
10:20 21.8 °C 16.3 °C 1018.5 hPa NE 8.0 km/h 20.9 km/h 71 % 0.0 mm 610 W/m2
10:25 22.1 °C 16.6 °C 1018.5 hPa SE 12.9 km/h 22.5 km/h 71 % 0.0 mm 619 W/m2
10:30 22.2 °C 16.7 °C 1018.5 hPa East 22.5 km/h 22.5 km/h 71 % 0.0 mm 631 W/m2
10:35 22.3 °C 16.8 °C 1018.5 hPa ESE 4.8 km/h 22.5 km/h 71 % 0.0 mm 647 W/m2
10:40 22.6 °C 17.0 °C 1018.5 hPa NE 8.0 km/h 22.5 km/h 71 % 0.0 mm 657 W/m2
10:45 22.7 °C 16.7 °C 1018.5 hPa ESE 12.9 km/h 24.1 km/h 69 % 0.0 mm 671 W/m2
10:50 22.8 °C 17.0 °C 1018.5 hPa ESE 8.0 km/h 24.1 km/h 70 % 0.0 mm 682 W/m2
10:55 22.8 °C 16.8 °C 1018.5 hPa ENE 8.0 km/h 25.7 km/h 69 % 0.0 mm 696 W/m2
11:00 23.1 °C 17.1 °C 1018.2 hPa ESE 6.4 km/h 25.7 km/h 69 % 0.0 mm 705 W/m2
11:05 23.3 °C 17.3 °C 1018.2 hPa ESE 12.9 km/h 25.7 km/h 69 % 0.0 mm 715 W/m2
11:10 23.4 °C 17.1 °C 1018.2 hPa ESE 14.5 km/h 25.7 km/h 68 % 0.0 mm 724 W/m2
11:15 23.6 °C 17.6 °C 1018.2 hPa East 8.0 km/h 27.4 km/h 69 % 0.0 mm 738 W/m2
11:20 23.9 °C 17.7 °C 1018.2 hPa East 8.0 km/h 27.4 km/h 68 % 0.0 mm 747 W/m2
11:25 24.1 °C 17.1 °C 1017.8 hPa ESE 12.9 km/h 24.1 km/h 65 % 0.0 mm 759 W/m2
11:30 24.3 °C 17.8 °C 1017.8 hPa East 20.9 km/h 27.4 km/h 67 % 0.0 mm 766 W/m2
11:35 24.3 °C 16.8 °C 1017.8 hPa SE 17.7 km/h 30.6 km/h 63 % 0.0 mm 779 W/m2
11:40 24.4 °C 17.1 °C 1017.8 hPa NE 9.7 km/h 35.4 km/h 64 % 0.0 mm 786 W/m2
11:45 24.6 °C 17.1 °C 1017.8 hPa East 12.9 km/h 35.4 km/h 63 % 0.0 mm 796 W/m2
11:50 24.8 °C 17.0 °C 1017.8 hPa ENE 8.0 km/h 25.7 km/h 62 % 0.0 mm 803 W/m2
11:55 24.8 °C 17.0 °C 1017.8 hPa ESE 6.4 km/h 27.4 km/h 62 % 0.0 mm 809 W/m2
12:00 25.1 °C 17.3 °C 1017.8 hPa SE 4.8 km/h 27.4 km/h 62 % 0.0 mm 821 W/m2
12:05 25.3 °C 17.2 °C 1017.8 hPa East 14.5 km/h 24.1 km/h 61 % 0.0 mm 830 W/m2
12:10 25.4 °C 17.3 °C 1017.8 hPa ENE 16.1 km/h 35.4 km/h 61 % 0.0 mm 835 W/m2
12:15 25.4 °C 16.8 °C 1017.8 hPa ESE 14.5 km/h 35.4 km/h 59 % 0.0 mm 844 W/m2
12:20 25.5 °C 17.4 °C 1017.8 hPa ENE 16.1 km/h 30.6 km/h 61 % 0.0 mm 849 W/m2
12:25 25.7 °C 17.1 °C 1017.8 hPa SSE 9.7 km/h 30.6 km/h 59 % 0.0 mm 860 W/m2
12:30 25.5 °C 16.4 °C 1017.8 hPa NE 9.7 km/h 30.6 km/h 57 % 0.0 mm 863 W/m2
12:35 25.9 °C 17.0 °C 1017.8 hPa ESE 8.0 km/h 30.6 km/h 58 % 0.0 mm 874 W/m2
12:40 26.1 °C 16.6 °C 1017.5 hPa SE 12.9 km/h 25.7 km/h 56 % 0.0 mm 874 W/m2
12:45 26.3 °C 17.1 °C 1017.5 hPa SE 9.7 km/h 25.7 km/h 57 % 0.0 mm 877 W/m2
12:50 26.6 °C 16.8 °C 1017.5 hPa ENE 6.4 km/h 22.5 km/h 55 % 0.0 mm 886 W/m2
12:55 26.6 °C 17.3 °C 1017.5 hPa SSE 25.7 km/h 25.7 km/h 57 % 0.0 mm 888 W/m2
13:05 26.5 °C 16.4 °C 1017.5 hPa ENE 14.5 km/h 25.7 km/h 54 % 0.0 mm 898 W/m2
13:10 26.8 °C 17.0 °C 1017.5 hPa East 14.5 km/h 22.5 km/h 55 % 0.0 mm 895 W/m2
13:15 26.8 °C 16.7 °C 1017.5 hPa ESE 19.3 km/h 27.4 km/h 54 % 0.0 mm 898 W/m2
13:20 26.9 °C 17.4 °C 1017.2 hPa East 17.7 km/h 27.4 km/h 56 % 0.0 mm 907 W/m2
13:25 27.1 °C 16.1 °C 1017.2 hPa East 16.1 km/h 29.0 km/h 51 % 0.0 mm 907 W/m2
13:30 27.0 °C 16.3 °C 1017.2 hPa East 11.3 km/h 29.0 km/h 52 % 0.0 mm 911 W/m2
13:35 27.2 °C 16.8 °C 1017.2 hPa SE 14.5 km/h 27.4 km/h 53 % 0.0 mm 911 W/m2
13:45 27.2 °C 16.2 °C 1016.8 hPa ESE 11.3 km/h 33.8 km/h 51 % 0.0 mm 911 W/m2
13:50 27.3 °C 16.3 °C 1016.8 hPa ENE 8.0 km/h 33.8 km/h 51 % 0.0 mm 914 W/m2
13:55 27.8 °C 16.1 °C 1016.8 hPa East 17.7 km/h 30.6 km/h 49 % 0.0 mm 912 W/m2
14:00 27.6 °C 17.5 °C 1016.8 hPa SE 11.3 km/h 30.6 km/h 54 % 0.0 mm 914 W/m2
14:05 27.7 °C 16.0 °C 1016.8 hPa East 4.8 km/h 29.0 km/h 49 % 0.0 mm 909 W/m2
14:10 27.6 °C 15.9 °C 1016.8 hPa ESE 11.3 km/h 25.7 km/h 49 % 0.0 mm 909 W/m2
14:15 27.8 °C 16.1 °C 1016.8 hPa ENE 11.3 km/h 25.7 km/h 49 % 0.0 mm 904 W/m2
14:20 27.9 °C 15.9 °C 1016.8 hPa SE 11.3 km/h 25.7 km/h 48 % 0.0 mm 904 W/m2
14:25 28.0 °C 16.6 °C 1016.8 hPa SE 14.5 km/h 25.7 km/h 50 % 0.0 mm 909 W/m2
14:30 28.1 °C 15.7 °C 1016.5 hPa East 12.9 km/h 27.4 km/h 47 % 0.0 mm 904 W/m2
14:35 28.2 °C 16.4 °C 1016.5 hPa NE 12.9 km/h 30.6 km/h 49 % 0.0 mm 896 W/m2
14:40 28.2 °C 16.8 °C 1016.5 hPa ESE 14.5 km/h 30.6 km/h 50 % 0.0 mm 898 W/m2
14:45 28.4 °C 17.0 °C 1016.5 hPa SE 14.5 km/h 30.6 km/h 50 % 0.0 mm 895 W/m2
14:50 28.5 °C 16.7 °C 1016.5 hPa East 22.5 km/h 29.0 km/h 49 % 0.0 mm 893 W/m2
14:55 28.4 °C 17.0 °C 1016.1 hPa ESE 12.9 km/h 29.0 km/h 50 % 0.0 mm 889 W/m2
15:00 28.6 °C 16.2 °C 1016.1 hPa ESE 11.3 km/h 27.4 km/h 47 % 0.0 mm 888 W/m2
15:05 28.4 °C 16.7 °C 1016.1 hPa East 14.5 km/h 27.4 km/h 49 % 0.0 mm 881 W/m2
15:10 28.4 °C 17.0 °C 1016.1 hPa ESE 14.5 km/h 29.0 km/h 50 % 0.0 mm 877 W/m2
15:15 28.6 °C 16.5 °C 1016.1 hPa ESE 14.5 km/h 29.0 km/h 48 % 0.0 mm 868 W/m2
15:20 28.8 °C 16.7 °C 1016.1 hPa ESE 12.9 km/h 27.4 km/h 48 % 0.0 mm 863 W/m2
15:25 28.7 °C 16.3 °C 1016.1 hPa SE 22.5 km/h 27.4 km/h 47 % 0.0 mm 858 W/m2
15:30 28.8 °C 15.7 °C 1015.8 hPa ESE 12.9 km/h 24.1 km/h 45 % 0.0 mm 854 W/m2
15:35 28.8 °C 17.0 °C 1015.8 hPa ESE 17.7 km/h 25.7 km/h 49 % 0.0 mm 844 W/m2
15:40 28.8 °C 16.3 °C 1015.8 hPa ESE 6.4 km/h 27.4 km/h 47 % 0.0 mm 837 W/m2
15:45 28.8 °C 17.1 °C 1015.8 hPa East 8.0 km/h 27.4 km/h 49 % 0.0 mm 831 W/m2
15:50 29.1 °C 16.6 °C 1015.5 hPa NE 6.4 km/h 25.7 km/h 47 % 0.0 mm 824 W/m2
15:55 29.2 °C 16.4 °C 1015.5 hPa ESE 11.3 km/h 25.7 km/h 46 % 0.0 mm 812 W/m2
16:00 29.0 °C 16.2 °C 1015.5 hPa SE 16.1 km/h 25.7 km/h 46 % 0.0 mm 810 W/m2
16:05 29.2 °C 16.0 °C 1015.5 hPa ENE 6.4 km/h 25.7 km/h 45 % 0.0 mm 800 W/m2
16:10 29.2 °C 17.4 °C 1015.1 hPa ENE 8.0 km/h 29.0 km/h 49 % 0.0 mm 793 W/m2
16:15 29.5 °C 16.7 °C 1015.1 hPa ESE 9.7 km/h 29.0 km/h 46 % 0.0 mm 786 W/m2
16:20 29.2 °C 16.1 °C 1015.1 hPa ESE 12.9 km/h 27.4 km/h 45 % 0.0 mm 775 W/m2
16:25 29.2 °C 17.4 °C 1015.1 hPa NE 8.0 km/h 29.0 km/h 49 % 0.0 mm 765 W/m2
16:30 29.5 °C 16.7 °C 1015.1 hPa ESE 12.9 km/h 29.0 km/h 46 % 0.0 mm 756 W/m2
16:35 29.5 °C 16.3 °C 1015.1 hPa ESE 19.3 km/h 27.4 km/h 45 % 0.0 mm 745 W/m2
16:40 29.3 °C 16.5 °C 1015.1 hPa East 11.3 km/h 24.1 km/h 46 % 0.0 mm 737 W/m2
16:45 29.5 °C 16.3 °C 1015.1 hPa East 25.7 km/h 30.6 km/h 45 % 0.0 mm 722 W/m2
16:50 29.3 °C 15.8 °C 1015.1 hPa East 16.1 km/h 37.0 km/h 44 % 0.0 mm 712 W/m2
16:55 29.3 °C 16.9 °C 1014.8 hPa East 24.1 km/h 37.0 km/h 47 % 0.0 mm 700 W/m2
17:00 29.4 °C 15.5 °C 1014.8 hPa East 14.5 km/h 30.6 km/h 43 % 0.0 mm 689 W/m2
17:05 29.2 °C 16.4 °C 1014.8 hPa East 14.5 km/h 30.6 km/h 46 % 0.0 mm 679 W/m2
17:10 29.4 °C 16.6 °C 1014.8 hPa ESE 12.9 km/h 29.0 km/h 46 % 0.0 mm 668 W/m2
17:15 29.6 °C 16.0 °C 1014.8 hPa ESE 4.8 km/h 29.0 km/h 44 % 0.0 mm 656 W/m2
17:20 29.5 °C 15.6 °C 1014.8 hPa East 25.7 km/h 32.2 km/h 43 % 0.0 mm 645 W/m2
17:25 29.4 °C 15.6 °C 1014.8 hPa SE 8.0 km/h 32.2 km/h 43 % 0.0 mm 635 W/m2
17:30 29.4 °C 15.9 °C 1014.8 hPa ESE 16.1 km/h 27.4 km/h 44 % 0.0 mm 622 W/m2
17:35 29.5 °C 16.3 °C 1014.4 hPa East 16.1 km/h 24.1 km/h 45 % 0.0 mm 606 W/m2
17:40 29.6 °C 15.3 °C 1014.4 hPa SE 14.5 km/h 24.1 km/h 42 % 0.0 mm 596 W/m2
17:45 29.5 °C 15.6 °C 1014.4 hPa ESE 19.3 km/h 27.4 km/h 43 % 0.0 mm 582 W/m2
17:50 29.3 °C 15.5 °C 1014.4 hPa SE 12.9 km/h 27.4 km/h 43 % 0.0 mm 571 W/m2
17:55 29.3 °C 16.5 °C 1014.4 hPa ENE 11.3 km/h 27.4 km/h 46 % 0.0 mm 555 W/m2
18:00 29.5 °C 16.3 °C 1014.4 hPa ENE 14.5 km/h 27.4 km/h 45 % 0.0 mm 541 W/m2
18:05 29.3 °C 15.8 °C 1014.4 hPa ENE 3.2 km/h 27.4 km/h 44 % 0.0 mm 529 W/m2
18:15 29.3 °C 16.5 °C 1014.4 hPa East 14.5 km/h 25.7 km/h 46 % 0.0 mm 501 W/m2
18:20 29.2 °C 16.4 °C 1014.4 hPa ESE 11.3 km/h 25.7 km/h 46 % 0.0 mm 485 W/m2
18:25 29.2 °C 16.4 °C 1014.1 hPa East 12.9 km/h 29.0 km/h 46 % 0.0 mm 473 W/m2
18:30 29.2 °C 17.1 °C 1014.1 hPa East 4.8 km/h 29.0 km/h 48 % 0.0 mm 459 W/m2
18:35 29.2 °C 16.4 °C 1014.1 hPa ESE 14.5 km/h 24.1 km/h 46 % 0.0 mm 443 W/m2
18:40 29.3 °C 16.9 °C 1014.1 hPa ESE 4.8 km/h 24.1 km/h 47 % 0.0 mm 431 W/m2
18:45 29.4 °C 16.6 °C 1014.1 hPa East 16.1 km/h 24.1 km/h 46 % 0.0 mm 417 W/m2
18:50 29.3 °C 16.5 °C 1014.1 hPa ESE 4.8 km/h 22.5 km/h 46 % 0.0 mm 399 W/m2
18:55 29.1 °C 16.9 °C 1013.8 hPa ENE 8.0 km/h 24.1 km/h 48 % 0.0 mm 383 W/m2
19:00 29.0 °C 16.9 °C 1013.8 hPa East 12.9 km/h 24.1 km/h 48 % 0.0 mm 374 W/m2
19:05 29.0 °C 16.9 °C 1013.8 hPa East 8.0 km/h 20.9 km/h 48 % 0.0 mm 359 W/m2
19:10 28.9 °C 16.4 °C 1013.8 hPa ESE 8.0 km/h 22.5 km/h 47 % 0.0 mm 345 W/m2
19:15 29.0 °C 16.2 °C 1013.8 hPa SE 11.3 km/h 22.5 km/h 46 % 0.0 mm 330 W/m2
19:20 28.9 °C 16.1 °C 1013.8 hPa East 12.9 km/h 24.1 km/h 46 % 0.0 mm 316 W/m2
19:25 28.8 °C 16.3 °C 1013.8 hPa East 4.8 km/h 24.1 km/h 47 % 0.0 mm 301 W/m2
19:30 28.7 °C 16.6 °C 1013.8 hPa ENE 1.6 km/h 20.9 km/h 48 % 0.0 mm 290 W/m2
19:35 28.5 °C 16.4 °C 1013.8 hPa ESE 8.0 km/h 19.3 km/h 48 % 0.0 mm 274 W/m2
19:40 28.3 °C 16.6 °C 1013.8 hPa East 17.7 km/h 20.9 km/h 49 % 0.0 mm 253 W/m2
19:45 28.2 °C 16.4 °C 1013.4 hPa NE 16.1 km/h 20.9 km/h 49 % 0.0 mm 229 W/m2
19:50 28.0 °C 16.3 °C 1013.4 hPa East 9.7 km/h 20.9 km/h 49 % 0.0 mm 204 W/m2
19:55 27.8 °C 16.5 °C 1013.4 hPa ENE 6.4 km/h 20.9 km/h 50 % 0.0 mm 183 W/m2
20:00 27.6 °C 16.2 °C 1013.4 hPa ESE 9.7 km/h 27.4 km/h 50 % 0.0 mm 167 W/m2
20:05 27.4 °C 16.4 °C 1013.4 hPa ESE 16.1 km/h 27.4 km/h 51 % 0.0 mm 156 W/m2
20:10 27.3 °C 16.6 °C 1013.4 hPa ESE 6.4 km/h 22.5 km/h 52 % 0.0 mm 148 W/m2
20:15 27.2 °C 16.5 °C 1013.4 hPa East 4.8 km/h 20.9 km/h 52 % 0.0 mm 141 W/m2
20:20 27.0 °C 16.3 °C 1013.4 hPa East 4.8 km/h 20.9 km/h 52 % 0.0 mm 123 W/m2
20:25 26.8 °C 16.4 °C 1013.4 hPa NE 1.6 km/h 20.9 km/h 53 % 0.0 mm 104 W/m2
20:30 26.6 °C 16.5 °C 1013.4 hPa SE 3.2 km/h 20.9 km/h 54 % 0.0 mm 47 W/m2
20:40 26.2 °C 16.5 °C 1013.8 hPa East 8.0 km/h 16.1 km/h 55 % 0.0 mm 33 W/m2
20:45 26.0 °C 16.5 °C 1013.4 hPa SE 4.8 km/h 16.1 km/h 56 % 0.0 mm 26 W/m2
20:50 25.8 °C 16.7 °C 1013.8 hPa East 1.6 km/h 12.9 km/h 57 % 0.0 mm 25 W/m2
20:55 25.7 °C 16.6 °C 1013.8 hPa ENE 3.2 km/h 14.5 km/h 57 % 0.0 mm 23 W/m2
21:00 25.5 °C 16.6 °C 1013.8 hPa East 8.0 km/h 14.5 km/h 58 % 0.0 mm 21 W/m2
21:05 25.4 °C 16.5 °C 1013.8 hPa East 9.7 km/h 16.1 km/h 58 % 0.0 mm 19 W/m2
21:10 25.2 °C 16.4 °C 1013.8 hPa East 8.0 km/h 16.1 km/h 58 % 0.0 mm 18 W/m2
21:15 25.1 °C 16.5 °C 1013.8 hPa ENE 3.2 km/h 14.5 km/h 59 % 0.0 mm 16 W/m2
21:20 24.9 °C 16.4 °C 1013.8 hPa ENE 4.8 km/h 14.5 km/h 59 % 0.0 mm 14 W/m2
21:25 24.7 °C 16.4 °C 1013.8 hPa East 3.2 km/h 14.5 km/h 60 % 0.0 mm 12 W/m2
21:30 24.6 °C 16.3 °C 1013.8 hPa East 1.6 km/h 12.9 km/h 60 % 0.0 mm 11 W/m2
21:35 24.5 °C 16.2 °C 1013.8 hPa Calm   12.9 km/h 60 % 0.0 mm 9 W/m2
21:40 24.3 °C 16.3 °C 1013.8 hPa East 1.6 km/h 12.9 km/h 61 % 0.0 mm 7 W/m2
21:45 24.1 °C 16.3 °C 1013.8 hPa ENE 1.6 km/h 11.3 km/h 62 % 0.0 mm 5 W/m2
21:50 23.7 °C 16.3 °C 1013.8 hPa East 3.2 km/h 8.0 km/h 63 % 0.0 mm 0 W/m2
21:55 23.4 °C 16.2 °C 1013.8 hPa Calm   8.0 km/h 64 % 0.0 mm 0 W/m2
22:00 23.2 °C 16.2 °C 1013.8 hPa ENE 3.2 km/h 12.9 km/h 65 % 0.0 mm 0 W/m2
22:10 22.9 °C 16.3 °C 1013.8 hPa ENE 4.8 km/h 9.7 km/h 66 % 0.0 mm 0 W/m2
22:15 22.7 °C 16.3 °C 1013.8 hPa East 3.2 km/h 11.3 km/h 67 % 0.0 mm 0 W/m2
22:20 22.6 °C 16.1 °C 1014.1 hPa NE 3.2 km/h 11.3 km/h 67 % 0.0 mm 0 W/m2
22:25 22.5 °C 16.1 °C 1014.1 hPa East 3.2 km/h 11.3 km/h 67 % 0.0 mm 0 W/m2
22:30 22.4 °C 16.2 °C 1014.1 hPa ENE 3.2 km/h 8.0 km/h 68 % 0.0 mm 0 W/m2
22:35 22.3 °C 16.1 °C 1014.1 hPa ESE 4.8 km/h 11.3 km/h 68 % 0.0 mm 0 W/m2
22:40 22.0 °C 16.0 °C 1014.1 hPa East 6.4 km/h 11.3 km/h 69 % 0.0 mm 0 W/m2
22:45 21.6 °C 15.9 °C 1014.1 hPa ENE 3.2 km/h 11.3 km/h 70 % 0.0 mm 0 W/m2
22:50 21.6 °C 16.1 °C 1014.1 hPa East 3.2 km/h 8.0 km/h 71 % 0.0 mm 0 W/m2
22:55 21.5 °C 16.0 °C 1014.1 hPa East 4.8 km/h 11.3 km/h 71 % 0.0 mm 0 W/m2
23:00 21.5 °C 16.0 °C 1014.1 hPa East 8.0 km/h 11.3 km/h 71 % 0.0 mm 0 W/m2
23:05 21.5 °C 16.0 °C 1014.1 hPa NE 6.4 km/h 12.9 km/h 71 % 0.0 mm 0 W/m2
23:10 21.4 °C 15.9 °C 1014.1 hPa ENE 3.2 km/h 12.9 km/h 71 % 0.0 mm 0 W/m2
23:15 21.4 °C 16.1 °C 1014.4 hPa ENE 1.6 km/h 11.3 km/h 72 % 0.0 mm 0 W/m2
23:20 21.3 °C 16.0 °C 1014.4 hPa East 6.4 km/h 11.3 km/h 72 % 0.0 mm 0 W/m2
23:25 21.1 °C 15.9 °C 1014.4 hPa ENE 4.8 km/h 11.3 km/h 72 % 0.0 mm 0 W/m2
23:30 21.1 °C 16.0 °C 1014.4 hPa ENE 1.6 km/h 11.3 km/h 73 % 0.0 mm 0 W/m2
23:35 21.0 °C 16.0 °C 1014.4 hPa East 8.0 km/h 11.3 km/h 73 % 0.0 mm 0 W/m2
23:40 20.9 °C 15.9 °C 1014.4 hPa ENE 6.4 km/h 9.7 km/h 73 % 0.0 mm 0 W/m2
23:45 20.8 °C 15.8 °C 1014.4 hPa ENE 6.4 km/h 11.3 km/h 73 % 0.0 mm 0 W/m2
23:50 20.6 °C 15.8 °C 1014.4 hPa ENE 8.0 km/h 11.3 km/h 74 % 0.0 mm 0 W/m2
23:55 20.5 °C 15.9 °C 1014.4 hPa Calm   11.3 km/h 75 % 0.0 mm 0 W/m2
Avec l'autorisation de Weather Underground - 1.75 mb